Time;durP1;ratioP1;P1;durP2;ratioP2;P2;SDS_P1;SDS_P2;PMS_P1;PMS_P2;Temp;Humidity;BMP_temperature;BMP_pressure;BME280_temperature;BME280_humidity;BME280_pressure;Samples;Min_cycle;Max_cycle;Signal;HPM_P1;HPM_P2
2022/03/02 00:01:40;;;;;;;37.72;22.38;;;5.50;99.90;;;;;;5063259;28;20056;-75
2022/03/02 00:04:05;;;;;;;35.63;21.10;;;5.50;99.90;;;;;;5038198;28;20075;-74
2022/03/02 00:06:31;;;;;;;42.08;21.85;;;5.60;99.90;;;;;;5059224;28;20420;-74
2022/03/02 00:08:57;;;;;;;41.45;22.85;;;5.50;99.90;;;;;;5041050;28;20045;-74
2022/03/02 00:11:23;;;;;;;35.13;21.33;;;5.50;99.90;;;;;;5043874;28;20503;-74
2022/03/02 00:13:49;;;;;;;42.03;23.17;;;5.50;99.90;;;;;;5045201;28;20052;-74
2022/03/02 00:16:14;;;;;;;36.30;21.27;;;5.50;99.90;;;;;;5060940;28;20045;-74
2022/03/02 00:18:40;;;;;;;36.97;21.40;;;5.40;99.90;;;;;;5041417;28;20068;-74
2022/03/02 00:21:06;;;;;;;33.58;19.63;;;5.40;99.90;;;;;;5045185;28;20433;-74
2022/03/02 00:23:31;;;;;;;40.58;21.75;;;5.40;99.90;;;;;;5045349;28;20080;-74
2022/03/02 00:25:57;;;;;;;37.90;21.35;;;5.50;99.90;;;;;;5044410;28;20441;-74
2022/03/02 00:28:23;;;;;;;37.53;21.10;;;5.40;99.90;;;;;;5062978;28;20044;-74
2022/03/02 00:30:49;;;;;;;35.50;21.30;;;5.40;99.90;;;;;;5043630;28;20737;-74
2022/03/02 00:33:15;;;;;;;39.15;22.05;;;5.40;99.90;;;;;;5060642;28;20105;-74
2022/03/02 00:35:41;;;;;;;36.50;20.05;;;5.40;99.90;;;;;;5041962;28;20409;-74
2022/03/02 00:38:10;;;;;;;38.35;22.13;;;5.40;99.90;;;;;;5046064;28;20901;-74
2022/03/02 00:40:36;;;;;;;39.80;22.45;;;5.40;99.90;;;;;;5039674;28;20064;-74
2022/03/02 00:43:02;;;;;;;39.40;21.02;;;5.40;99.90;;;;;;5043901;28;20407;-74
2022/03/02 00:45:27;;;;;;;35.40;21.27;;;5.40;99.90;;;;;;5045496;28;20063;-74
2022/03/02 00:47:53;;;;;;;37.60;21.52;;;5.40;99.90;;;;;;5067487;28;20967;-74
2022/03/02 00:50:19;;;;;;;38.78;21.58;;;5.40;99.90;;;;;;5062298;28;20064;-74
2022/03/02 00:52:46;;;;;;;41.03;21.63;;;5.40;99.90;;;;;;5044158;28;20135;-74
2022/03/02 00:55:11;;;;;;;33.20;20.05;;;5.30;99.90;;;;;;5045682;28;20048;-74
2022/03/02 00:57:37;;;;;;;40.05;22.75;;;5.30;99.90;;;;;;5062451;28;20045;-74
2022/03/02 01:00:05;;;;;;;37.05;22.38;;;5.30;99.90;;;;;;5047044;28;20040;-74
2022/03/02 01:02:30;;;;;;;36.92;21.10;;;5.30;99.90;;;;;;5043530;28;20083;-74
2022/03/02 01:04:56;;;;;;;37.42;22.55;;;5.30;99.90;;;;;;5042516;28;20857;-74
2022/03/02 01:07:21;;;;;;;37.10;22.00;;;5.30;99.90;;;;;;5046152;28;20056;-74
2022/03/02 01:09:47;;;;;;;39.08;22.50;;;5.30;99.90;;;;;;5044308;28;20048;-74
2022/03/02 01:12:13;;;;;;;39.20;21.55;;;5.30;99.90;;;;;;5049555;28;20075;-74
2022/03/02 01:14:38;;;;;;;40.95;21.30;;;5.30;99.90;;;;;;5044417;28;20087;-74
2022/03/02 01:17:04;;;;;;;41.47;22.98;;;5.30;99.90;;;;;;5060229;28;20377;-74
2022/03/02 01:19:30;;;;;;;41.58;22.50;;;5.20;99.90;;;;;;5044442;28;20064;-74
2022/03/02 01:21:55;;;;;;;41.65;22.88;;;5.20;99.90;;;;;;5066721;28;20049;-74
2022/03/02 01:24:21;;;;;;;39.90;22.58;;;5.20;99.90;;;;;;5046780;28;20096;-74
2022/03/02 01:26:47;;;;;;;39.42;22.77;;;5.20;99.90;;;;;;5067564;28;20407;-74
2022/03/02 01:29:13;;;;;;;42.85;23.63;;;5.20;99.90;;;;;;5048720;28;20041;-74
2022/03/02 01:31:39;;;;;;;43.03;24.23;;;5.20;99.90;;;;;;5041686;28;20044;-75
2022/03/02 01:34:04;;;;;;;40.65;23.80;;;5.30;99.90;;;;;;5051656;28;20484;-74
2022/03/02 01:36:30;;;;;;;41.08;24.35;;;5.20;99.90;;;;;;5062850;28;20433;-74
2022/03/02 01:38:56;;;;;;;43.90;24.40;;;5.10;99.90;;;;;;5060672;28;20408;-74
2022/03/02 01:41:24;;;;;;;42.88;24.33;;;5.10;99.90;;;;;;5070918;28;20041;-74
2022/03/02 01:43:51;;;;;;;44.70;25.20;;;5.10;99.90;;;;;;5046719;28;20059;-74
2022/03/02 01:46:17;;;;;;;41.03;23.65;;;5.10;99.90;;;;;;5046670;28;20113;-74
2022/03/02 01:48:43;;;;;;;43.80;24.73;;;5.10;99.90;;;;;;5045072;28;20507;-74
2022/03/02 01:51:10;;;;;;;42.22;24.30;;;5.10;99.90;;;;;;5043912;28;20123;-74
2022/03/02 01:53:36;;;;;;;49.70;25.02;;;5.10;99.90;;;;;;5048237;28;20047;-74
2022/03/02 01:56:02;;;;;;;42.60;24.17;;;5.10;99.90;;;;;;5045332;28;20041;-74
2022/03/02 01:58:28;;;;;;;47.65;26.17;;;5.10;99.90;;;;;;5045758;28;20153;-74
2022/03/02 02:00:55;;;;;;;44.47;24.77;;;5.10;99.90;;;;;;5044391;28;20053;-74
2022/03/02 02:03:20;;;;;;;44.95;25.65;;;5.10;99.90;;;;;;5041686;28;20182;-74
2022/03/02 02:05:46;;;;;;;44.72;25.45;;;5.10;99.90;;;;;;5044386;28;20136;-74
2022/03/02 02:08:12;;;;;;;45.95;25.60;;;5.10;99.90;;;;;;5046517;28;20045;-74
2022/03/02 02:10:38;;;;;;;48.13;26.17;;;5.10;99.90;;;;;;5045263;28;20060;-74
2022/03/02 02:13:04;;;;;;;46.15;27.10;;;5.10;99.90;;;;;;5065983;28;20044;-74
2022/03/02 02:15:29;;;;;;;45.00;26.27;;;5.10;99.90;;;;;;5043408;28;20578;-74
2022/03/02 02:17:56;;;;;;;43.75;25.38;;;5.10;99.90;;;;;;5065006;28;20045;-74
2022/03/02 02:20:23;;;;;;;48.60;27.88;;;5.00;99.90;;;;;;5063399;28;20124;-74
2022/03/02 02:22:49;;;;;;;44.08;26.75;;;5.10;99.90;;;;;;5050639;28;20162;-74
2022/03/02 02:25:16;;;;;;;47.13;26.67;;;5.10;99.90;;;;;;5044907;28;20051;-74
2022/03/02 02:27:44;;;;;;;47.75;26.02;;;5.00;99.90;;;;;;5061603;28;20084;-74
2022/03/02 02:30:11;;;;;;;47.15;27.27;;;5.00;99.90;;;;;;5059199;28;20059;-74
2022/03/02 02:32:38;;;;;;;47.95;27.27;;;5.00;99.90;;;;;;5048842;28;20044;-74
2022/03/02 02:35:06;;;;;;;46.70;27.02;;;5.00;99.90;;;;;;5044589;28;20036;-74
2022/03/02 02:37:34;;;;;;;50.30;26.13;;;5.00;99.90;;;;;;5042447;28;20045;-74
2022/03/02 02:40:06;;;;;;;48.90;27.23;;;4.90;99.90;;;;;;5042409;28;20036;-74
2022/03/02 02:42:32;;;;;;;49.72;28.60;;;4.90;99.90;;;;;;5043083;28;20110;-74
2022/03/02 02:44:57;;;;;;;49.50;27.33;;;4.90;99.90;;;;;;5041965;28;20462;-74
2022/03/02 02:47:23;;;;;;;50.95;27.05;;;4.90;99.90;;;;;;5042325;28;20056;-74
2022/03/02 02:49:49;;;;;;;46.75;26.15;;;4.90;99.90;;;;;;5059034;28;20057;-74
2022/03/02 02:52:15;;;;;;;49.67;28.25;;;4.90;99.90;;;;;;5045351;28;20476;-74
2022/03/02 02:54:42;;;;;;;46.78;27.83;;;4.80;99.90;;;;;;5061187;28;20052;-74
2022/03/02 02:57:08;;;;;;;48.60;27.98;;;4.80;99.90;;;;;;5047130;28;20071;-74
2022/03/02 02:59:34;;;;;;;52.17;26.58;;;4.80;99.90;;;;;;5046576;28;20041;-74
2022/03/02 03:02:00;;;;;;;46.00;26.48;;;4.70;99.90;;;;;;5073633;28;20106;-74
2022/03/02 03:04:26;;;;;;;48.35;27.95;;;4.70;99.90;;;;;;5062921;28;20047;-74
2022/03/02 03:06:51;;;;;;;49.88;28.20;;;4.60;99.90;;;;;;5060744;28;20033;-74
2022/03/02 03:09:17;;;;;;;48.95;27.52;;;4.60;99.90;;;;;;5044715;28;20044;-74
2022/03/02 03:11:43;;;;;;;46.42;27.65;;;4.70;99.90;;;;;;5039702;28;20075;-73
2022/03/02 03:14:10;;;;;;;51.83;29.02;;;4.50;99.90;;;;;;5039100;28;20052;-74
2022/03/02 03:16:36;;;;;;;53.05;28.33;;;4.40;99.90;;;;;;5041346;28;20037;-74
2022/03/02 03:19:02;;;;;;;49.83;27.73;;;5.50;99.90;;;;;;5074356;28;20098;-74
2022/03/02 03:21:28;;;;;;;52.13;28.73;;;4.40;99.90;;;;;;5037582;28;20041;-73
2022/03/02 03:23:53;;;;;;;52.63;27.27;;;4.30;99.90;;;;;;5042817;28;20041;-73
2022/03/02 03:26:19;;;;;;;49.35;27.67;;;4.20;99.90;;;;;;5059003;28;20040;-73
2022/03/02 03:28:44;;;;;;;47.75;28.05;;;4.10;99.90;;;;;;5046448;28;20373;-73
2022/03/02 03:31:10;;;;;;;57.17;29.55;;;4.10;99.90;;;;;;5049032;28;20045;-74
2022/03/02 03:33:36;;;;;;;56.10;28.83;;;4.10;99.90;;;;;;5043799;28;20045;-74
2022/03/02 03:36:02;;;;;;;51.28;28.42;;;4.00;99.90;;;;;;5040365;28;20041;-73
2022/03/02 03:38:28;;;;;;;50.75;28.65;;;4.00;99.90;;;;;;5042480;28;20504;-73
2022/03/02 03:40:54;;;;;;;53.08;28.27;;;3.90;99.90;;;;;;5038943;28;20075;-74
2022/03/02 03:43:19;;;;;;;50.42;28.20;;;3.90;99.90;;;;;;5040687;28;20432;-73
2022/03/02 03:45:46;;;;;;;52.00;28.38;;;3.80;99.90;;;;;;5043214;28;20045;-73
2022/03/02 03:48:11;;;;;;;53.75;27.48;;;3.70;99.90;;;;;;5065802;28;20049;-73
2022/03/02 03:50:37;;;;;;;53.33;29.17;;;3.70;99.90;;;;;;5030653;28;20037;-73
2022/03/02 03:53:03;;;;;;;52.50;28.77;;;3.70;99.90;;;;;;5044198;28;20080;-73
2022/03/02 03:55:28;;;;;;;46.53;27.20;;;3.60;99.90;;;;;;5069500;28;20059;-73
2022/03/02 03:57:54;;;;;;;57.35;30.20;;;3.60;99.90;;;;;;5039229;28;20174;-73
2022/03/02 04:00:21;;;;;;;51.30;27.90;;;3.50;99.90;;;;;;5045284;28;20037;-74
2022/03/02 04:02:46;;;;;;;53.92;29.95;;;3.50;99.90;;;;;;5039293;28;20041;-74
2022/03/02 04:05:12;;;;;;;53.85;29.13;;;3.70;99.90;;;;;;5033203;28;20037;-73
2022/03/02 04:07:38;;;;;;;51.53;28.52;;;3.40;99.90;;;;;;5037805;28;20121;-73
2022/03/02 04:10:08;;;;;;;53.45;29.40;;;3.40;99.90;;;;;;5035249;28;20220;-73
2022/03/02 04:12:35;;;;;;;55.75;29.48;;;3.30;99.90;;;;;;5071619;28;20124;-73
2022/03/02 04:15:01;;;;;;;52.53;29.08;;;3.30;99.90;;;;;;5035897;28;20041;-73
2022/03/02 04:17:26;;;;;;;57.13;30.77;;;3.20;99.90;;;;;;5039171;28;20048;-73
2022/03/02 04:19:53;;;;;;;52.80;28.80;;;3.20;99.90;;;;;;5071607;28;20049;-73
2022/03/02 04:22:18;;;;;;;57.20;29.20;;;3.20;99.90;;;;;;5075083;28;20431;-73
2022/03/02 04:24:45;;;;;;;55.65;29.33;;;3.20;99.90;;;;;;5040202;28;20176;-73
2022/03/02 04:27:11;;;;;;;58.55;30.38;;;3.10;99.90;;;;;;5046232;28;20049;-73
2022/03/02 04:29:36;;;;;;;55.17;28.35;;;3.10;99.90;;;;;;5043147;28;20128;-73
2022/03/02 04:32:03;;;;;;;53.33;29.63;;;3.10;99.90;;;;;;5042290;28;20519;-73
2022/03/02 04:34:28;;;;;;;58.67;31.45;;;3.00;99.90;;;;;;5038009;28;20500;-73
2022/03/02 04:36:54;;;;;;;60.47;31.48;;;3.00;99.90;;;;;;5040392;28;20065;-73
2022/03/02 04:39:20;;;;;;;59.47;30.42;;;3.00;99.90;;;;;;5038320;28;20041;-73
2022/03/02 04:41:45;;;;;;;55.45;28.52;;;2.90;99.90;;;;;;5037776;28;20085;-73
2022/03/02 04:44:11;;;;;;;52.72;28.70;;;2.90;99.90;;;;;;5050372;28;20404;-73
2022/03/02 04:46:36;;;;;;;54.05;30.08;;;2.90;99.90;;;;;;5038869;28;20064;-73
2022/03/02 04:49:10;;;;;;;56.83;30.15;;;2.90;99.90;;;;;;5040128;28;20053;-72
2022/03/02 04:51:39;;;;;;;49.90;27.67;;;2.80;99.90;;;;;;5039998;28;20049;-72
2022/03/02 04:54:06;;;;;;;55.35;29.45;;;2.80;99.90;;;;;;5038779;28;20060;-72
2022/03/02 04:56:32;;;;;;;53.33;27.92;;;2.70;99.90;;;;;;5041517;28;20103;-72
2022/03/02 04:58:58;;;;;;;57.88;30.05;;;2.70;99.90;;;;;;5071945;28;20056;-72
2022/03/02 05:01:23;;;;;;;58.28;29.73;;;2.70;99.90;;;;;;5045155;28;20069;-72
2022/03/02 05:03:49;;;;;;;53.75;28.73;;;2.60;99.90;;;;;;5048147;28;20049;-72
2022/03/02 05:06:15;;;;;;;54.75;28.35;;;2.60;99.90;;;;;;5068038;28;20047;-72
2022/03/02 05:08:40;;;;;;;55.22;28.35;;;2.60;99.90;;;;;;5038989;28;20405;-72
2022/03/02 05:11:06;;;;;;;54.97;28.25;;;2.60;99.90;;;;;;5041661;28;20045;-72
2022/03/02 05:13:31;;;;;;;59.78;28.42;;;2.80;99.90;;;;;;5071107;28;20231;-72
2022/03/02 05:15:57;;;;;;;53.55;27.60;;;2.50;99.90;;;;;;5035755;28;20045;-72
2022/03/02 05:18:23;;;;;;;58.75;30.73;;;2.40;99.90;;;;;;5043361;28;20531;-72
2022/03/02 05:20:48;;;;;;;60.45;30.02;;;2.40;99.90;;;;;;5076155;28;20140;-72
2022/03/02 05:23:14;;;;;;;54.10;29.00;;;2.40;99.90;;;;;;5044655;28;20046;-71
2022/03/02 05:25:39;;;;;;;55.22;28.83;;;2.40;99.90;;;;;;5035721;28;20126;-71
2022/03/02 05:28:05;;;;;;;52.53;28.45;;;2.30;99.90;;;;;;5042631;28;20485;-72
2022/03/02 05:30:31;;;;;;;52.22;28.30;;;2.30;99.90;;;;;;5066102;28;20049;-72
2022/03/02 05:32:56;;;;;;;51.15;27.88;;;2.30;99.90;;;;;;5040539;28;20045;-72
2022/03/02 05:35:22;;;;;;;55.80;28.83;;;2.20;99.90;;;;;;5046726;28;20122;-72
2022/03/02 05:37:47;;;;;;;55.45;28.63;;;2.20;99.90;;;;;;5036101;28;20473;-72
2022/03/02 05:40:16;;;;;;;55.22;28.42;;;2.10;99.90;;;;;;5042368;28;20041;-72
2022/03/02 05:42:42;;;;;;;50.10;27.50;;;2.10;99.90;;;;;;5043364;28;20037;-72
2022/03/02 05:45:09;;;;;;;47.85;25.40;;;2.10;99.90;;;;;;5039869;28;20040;-72
2022/03/02 05:47:36;;;;;;;53.28;27.75;;;2.10;99.90;;;;;;5074726;28;20061;-72
2022/03/02 05:50:03;;;;;;;50.97;26.70;;;2.00;99.90;;;;;;5035858;28;20052;-72
2022/03/02 05:52:29;;;;;;;51.45;27.80;;;2.00;99.90;;;;;;5037462;28;20497;-72
2022/03/02 05:54:54;;;;;;;50.75;27.65;;;1.90;99.90;;;;;;5043517;28;20047;-72
2022/03/02 05:57:20;;;;;;;48.65;26.27;;;1.90;99.90;;;;;;5080234;28;20312;-72
2022/03/02 05:59:45;;;;;;;46.53;28.35;;;1.90;99.90;;;;;;5038822;28;20045;-72
2022/03/02 06:02:11;;;;;;;51.70;28.48;;;1.90;99.90;;;;;;5057679;28;20040;-72
2022/03/02 06:04:36;;;;;;;58.50;28.50;;;1.90;99.90;;;;;;5045124;28;20072;-72
2022/03/02 06:07:02;;;;;;;49.38;26.00;;;1.80;99.90;;;;;;5051792;28;20065;-72
2022/03/02 06:09:28;;;;;;;50.92;27.27;;;1.80;99.90;;;;;;5040916;28;20080;-73
2022/03/02 06:11:53;;;;;;;48.95;26.38;;;1.70;99.90;;;;;;5073430;28;20091;-73
2022/03/02 06:14:19;;;;;;;53.22;25.77;;;1.70;99.90;;;;;;5038270;28;20106;-74
2022/03/02 06:16:45;;;;;;;50.13;27.60;;;1.70;99.90;;;;;;5037952;28;20599;-74
2022/03/02 06:19:12;;;;;;;53.63;28.00;;;1.70;99.90;;;;;;5043209;28;20049;-75
2022/03/02 06:21:43;;;;;;;52.00;27.85;;;1.70;99.90;;;;;;5075128;28;20111;-74
2022/03/02 06:24:09;;;;;;;52.80;27.60;;;1.70;99.90;;;;;;5043498;28;20049;-73
2022/03/02 06:26:35;;;;;;;60.30;29.67;;;1.70;99.90;;;;;;5042380;28;20041;-74
2022/03/02 06:29:00;;;;;;;56.25;29.50;;;1.70;99.90;;;;;;5074213;28;20046;-76
2022/03/02 06:31:26;;;;;;;61.28;29.38;;;1.70;99.90;;;;;;5069893;28;20084;-75
2022/03/02 06:33:51;;;;;;;63.60;30.98;;;1.60;99.90;;;;;;5042617;28;20137;-74
2022/03/02 06:36:18;;;;;;;52.95;28.63;;;1.70;99.90;;;;;;5073188;28;20123;-75
2022/03/02 06:38:45;;;;;;;56.03;28.58;;;1.60;99.90;;;;;;5042074;28;20045;-76
2022/03/02 06:41:28;;;;;;;57.60;30.13;;;1.60;99.90;;;;;;5035542;28;20419;-76
2022/03/02 06:44:21;;;;;;;54.20;28.88;;;1.60;99.90;;;;;;5046916;28;20049;-76
2022/03/02 06:47:11;;;;;;;55.38;28.38;;;1.60;99.90;;;;;;5037259;28;20080;-76
2022/03/02 06:49:57;;;;;;;57.42;29.95;;;1.60;99.90;;;;;;5025743;28;20061;-76
2022/03/02 06:52:46;;;;;;;59.10;31.08;;;1.60;99.90;;;;;;5035634;28;20071;-76
2022/03/02 06:55:15;;;;;;;59.08;31.05;;;1.70;99.90;;;;;;5030710;28;20110;-76
2022/03/02 06:57:45;;;;;;;61.25;30.30;;;1.70;99.90;;;;;;5034388;28;20053;-75
2022/03/02 07:00:18;;;;;;;57.85;30.38;;;1.70;99.90;;;;;;5040073;28;20845;-76
2022/03/02 07:03:02;;;;;;;59.63;31.25;;;1.70;99.90;;;;;;5044950;28;20045;-76
2022/03/02 07:05:28;;;;;;;65.70;31.40;;;1.70;99.90;;;;;;5035737;28;20049;-76
2022/03/02 07:07:54;;;;;;;62.53;32.83;;;1.80;99.90;;;;;;5041739;28;20095;-75
2022/03/02 07:10:20;;;;;;;66.28;31.35;;;1.80;99.90;;;;;;5042654;28;20485;-76
2022/03/02 07:12:46;;;;;;;62.13;30.75;;;1.80;99.90;;;;;;5037564;28;20053;-77
2022/03/02 07:15:12;;;;;;;58.03;31.80;;;1.80;99.90;;;;;;5037573;28;20052;-79
2022/03/02 07:17:39;;;;;;;55.13;30.45;;;1.80;99.90;;;;;;5040265;28;20056;-74
2022/03/02 07:20:07;;;;;;;56.15;31.40;;;2.50;99.90;;;;;;5065417;28;20049;-74
2022/03/02 07:22:47;;;;;;;59.35;31.25;;;1.90;99.90;;;;;;5038054;28;20037;-73
2022/03/02 07:25:21;;;;;;;55.00;29.50;;;1.90;99.90;;;;;;5041316;28;20100;-73
2022/03/02 07:27:47;;;;;;;61.13;31.65;;;1.90;99.90;;;;;;5043381;28;20737;-73
2022/03/02 07:30:13;;;;;;;53.85;29.35;;;2.00;99.90;;;;;;5037133;28;20034;-73
2022/03/02 07:32:45;;;;;;;58.72;30.30;;;2.00;99.90;;;;;;5042055;28;20459;-73
2022/03/02 07:35:11;;;;;;;57.22;30.30;;;2.00;99.90;;;;;;5067988;28;20049;-74
2022/03/02 07:37:38;;;;;;;58.38;30.25;;;2.10;99.90;;;;;;5041262;28;20071;-73
2022/03/02 07:40:05;;;;;;;58.00;30.65;;;2.10;99.90;;;;;;5046132;28;20120;-72
2022/03/02 07:42:32;;;;;;;56.67;29.45;;;2.10;99.90;;;;;;5042549;28;20083;-73
2022/03/02 07:44:58;;;;;;;60.47;29.90;;;2.20;99.90;;;;;;5049067;28;20037;-73
2022/03/02 07:47:24;;;;;;;54.70;29.08;;;2.20;99.90;;;;;;5037313;28;20053;-73
2022/03/02 07:49:50;;;;;;;50.95;30.10;;;2.20;99.90;;;;;;5034938;28;20038;-73
2022/03/02 07:52:17;;;;;;;54.40;29.25;;;2.30;99.90;;;;;;5047631;28;20049;-74
2022/03/02 07:54:43;;;;;;;55.33;29.92;;;2.30;99.90;;;;;;5052378;28;20396;-72
2022/03/02 07:57:14;;;;;;;58.60;31.13;;;2.40;99.90;;;;;;5071535;28;20318;-73
2022/03/02 07:59:42;;;;;;;54.50;30.73;;;2.40;99.90;;;;;;5066183;28;20041;-73
2022/03/02 08:02:09;;;;;;;57.08;29.75;;;2.50;99.90;;;;;;5053978;28;20072;-72
2022/03/02 08:04:36;;;;;;;53.15;29.05;;;2.50;99.90;;;;;;5049434;28;20095;-72
2022/03/02 08:07:03;;;;;;;55.03;28.80;;;2.50;99.90;;;;;;5044299;28;20053;-73
2022/03/02 08:09:31;;;;;;;50.78;27.85;;;2.60;99.90;;;;;;5047607;28;20084;-72
2022/03/02 08:11:58;;;;;;;57.40;30.83;;;2.60;99.90;;;;;;5055381;28;20060;-72
2022/03/02 08:14:24;;;;;;;52.63;29.48;;;2.70;99.90;;;;;;5049138;28;20055;-73
2022/03/02 08:16:54;;;;;;;59.47;30.33;;;2.70;99.90;;;;;;5055119;28;20033;-72
2022/03/02 08:19:21;;;;;;;53.17;29.25;;;2.80;99.90;;;;;;5055792;28;20044;-73
2022/03/02 08:22:01;;;;;;;54.53;28.65;;;2.80;99.90;;;;;;5038798;28;20090;-73
2022/03/02 08:24:27;;;;;;;52.33;27.30;;;2.90;99.90;;;;;;5054616;28;20041;-73
2022/03/02 08:26:57;;;;;;;53.33;28.20;;;3.00;99.90;;;;;;5044764;28;20086;-73
2022/03/02 08:29:26;;;;;;;51.00;26.75;;;3.00;99.90;;;;;;5043821;28;20370;-72
2022/03/02 08:31:57;;;;;;;54.63;27.92;;;3.10;99.90;;;;;;5042417;28;20053;-72
2022/03/02 08:34:23;;;;;;;52.95;28.98;;;3.10;99.90;;;;;;5048570;28;20052;-73
2022/03/02 08:36:50;;;;;;;51.38;27.83;;;3.20;99.90;;;;;;5040545;28;20049;-72
2022/03/02 08:39:15;;;;;;;54.08;28.80;;;3.30;99.90;;;;;;5055477;28;20041;-72
2022/03/02 08:41:41;;;;;;;50.63;28.15;;;3.30;99.90;;;;;;5052083;28;20533;-73
2022/03/02 08:44:09;;;;;;;44.67;25.40;;;3.40;99.90;;;;;;5062939;28;20104;-72
2022/03/02 08:46:34;;;;;;;54.50;26.52;;;3.40;99.90;;;;;;5045175;28;20057;-73
2022/03/02 08:49:00;;;;;;;52.88;27.60;;;3.50;99.90;;;;;;5054113;28;20107;-72
2022/03/02 08:51:27;;;;;;;49.22;27.23;;;3.50;99.90;;;;;;5061821;28;20037;-73
2022/03/02 08:53:55;;;;;;;49.08;26.38;;;3.60;99.90;;;;;;5073877;28;20045;-73
2022/03/02 08:56:21;;;;;;;51.78;27.77;;;3.60;99.90;;;;;;5076110;28;20052;-73
2022/03/02 08:58:47;;;;;;;50.35;28.00;;;3.70;99.90;;;;;;5067158;28;20085;-73
2022/03/02 09:01:15;;;;;;;49.90;27.50;;;3.70;99.90;;;;;;5072623;28;20041;-73
2022/03/02 09:03:46;;;;;;;50.78;27.35;;;3.80;99.90;;;;;;5074577;28;20083;-72
2022/03/02 09:06:12;;;;;;;47.83;25.10;;;3.90;99.90;;;;;;5071912;28;21326;-73
2022/03/02 09:08:38;;;;;;;47.10;25.52;;;3.90;99.90;;;;;;5070897;28;20047;-73
2022/03/02 09:11:05;;;;;;;44.72;24.02;;;4.00;99.90;;;;;;5049043;28;20053;-73
2022/03/02 09:13:30;;;;;;;51.08;26.25;;;4.00;99.90;;;;;;5061207;28;20041;-73
2022/03/02 09:15:56;;;;;;;49.05;25.73;;;4.10;99.90;;;;;;5042332;28;20060;-73
2022/03/02 09:18:22;;;;;;;47.80;25.27;;;4.10;99.90;;;;;;5041937;28;20064;-73
2022/03/02 09:20:55;;;;;;;45.08;25.23;;;4.20;99.90;;;;;;5055586;28;20392;-73
2022/03/02 09:23:22;;;;;;;44.00;25.50;;;4.30;99.90;;;;;;5057033;28;20238;-73
2022/03/02 09:25:49;;;;;;;47.88;26.67;;;4.30;99.90;;;;;;5063939;28;20086;-73
2022/03/02 09:28:16;;;;;;;47.63;26.17;;;4.40;99.90;;;;;;5066983;28;20041;-73
2022/03/02 09:30:42;;;;;;;47.53;25.75;;;4.50;99.90;;;;;;5060539;28;20050;-72
2022/03/02 09:33:14;;;;;;;43.78;25.13;;;4.60;99.90;;;;;;5069554;28;20467;-72
2022/03/02 09:35:40;;;;;;;46.45;24.30;;;4.80;99.90;;;;;;5038463;28;20065;-73
2022/03/02 09:38:07;;;;;;;45.53;25.40;;;4.90;99.90;;;;;;5067726;28;20470;-75
2022/03/02 09:40:33;;;;;;;39.75;23.65;;;5.10;99.90;;;;;;5068149;28;20071;-72
2022/03/02 09:43:05;;;;;;;47.97;24.45;;;5.20;99.90;;;;;;5041181;28;20074;-73
2022/03/02 09:45:33;;;;;;;41.22;23.30;;;5.40;99.90;;;;;;5036331;28;20390;-72
2022/03/02 09:48:01;;;;;;;43.13;24.60;;;5.60;99.90;;;;;;5062358;28;20056;-73
2022/03/02 09:50:33;;;;;;;45.22;23.42;;;5.70;99.90;;;;;;5064671;28;20492;-73
2022/03/02 09:53:02;;;;;;;42.65;23.75;;;5.90;99.90;;;;;;5061441;28;20408;-73
2022/03/02 09:55:28;;;;;;;43.40;23.48;;;6.00;99.90;;;;;;5067245;28;20404;-73
2022/03/02 09:57:56;;;;;;;40.00;22.98;;;6.20;99.90;;;;;;5063817;28;20036;-73
2022/03/02 10:00:23;;;;;;;37.97;22.25;;;6.30;99.90;;;;;;5062629;28;20087;-73
2022/03/02 10:02:55;;;;;;;36.60;21.45;;;6.50;99.90;;;;;;5062291;28;20127;-73
2022/03/02 10:05:27;;;;;;;39.97;22.17;;;6.60;99.90;;;;;;5060653;28;20079;-72
2022/03/02 10:08:00;;;;;;;35.47;21.42;;;6.70;99.90;;;;;;5057741;28;20431;-73
2022/03/02 10:10:28;;;;;;;36.78;22.10;;;6.80;99.90;;;;;;5050535;28;20047;-72
2022/03/02 10:12:56;;;;;;;38.65;22.42;;;6.90;99.90;;;;;;5069414;28;20047;-72
2022/03/02 10:15:23;;;;;;;31.65;20.20;;;7.10;99.90;;;;;;5065720;28;20063;-73
2022/03/02 10:17:51;;;;;;;37.20;21.30;;;7.20;99.90;;;;;;5065274;28;20115;-71
2022/03/02 10:20:23;;;;;;;32.08;20.35;;;7.30;99.90;;;;;;5067868;28;20032;-72
2022/03/02 10:23:26;;;;;;;35.70;20.63;;;7.30;99.90;;;;;;5063651;28;20041;-72
2022/03/02 10:26:00;;;;;;;35.75;21.02;;;7.50;99.90;;;;;;5053396;28;20048;-72
2022/03/02 10:28:42;;;;;;;34.90;20.27;;;7.60;99.90;;;;;;5070531;28;20120;-72
2022/03/02 10:31:39;;;;;;;34.10;20.40;;;7.60;99.90;;;;;;5064994;28;20187;-74
2022/03/02 10:34:26;;;;;;;34.45;20.63;;;7.80;99.90;;;;;;5040312;28;20049;-73
2022/03/02 10:37:33;;;;;;;35.15;21.60;;;7.90;99.90;;;;;;5041427;28;20142;-72
2022/03/02 10:40:17;;;;;;;34.83;20.70;;;8.00;99.90;;;;;;5062381;28;20037;-72
2022/03/02 10:42:44;;;;;;;34.60;20.77;;;8.20;99.90;;;;;;5047790;28;20483;-73
2022/03/02 10:45:21;;;;;;;34.70;20.52;;;8.30;99.90;;;;;;5045034;28;20081;-73
2022/03/02 10:47:52;;;;;;;35.28;20.27;;;8.40;99.90;;;;;;5039605;28;20523;-74
2022/03/02 10:50:21;;;;;;;38.35;19.88;;;8.50;99.90;;;;;;5059195;28;20048;-73
2022/03/02 10:52:48;;;;;;;34.28;19.45;;;8.60;99.90;;;;;;5071470;28;20083;-73
2022/03/02 10:55:14;;;;;;;30.92;20.10;;;8.70;99.90;;;;;;5036153;28;20048;-73
2022/03/02 10:57:40;;;;;;;33.42;19.95;;;8.80;99.90;;;;;;5041886;28;20053;-73
2022/03/02 11:00:16;;;;;;;34.72;19.83;;;8.90;99.90;;;;;;5040962;28;20041;-74
2022/03/02 11:02:44;;;;;;;31.88;19.92;;;9.00;99.90;;;;;;5046537;28;20048;-73
2022/03/02 11:05:12;;;;;;;34.05;19.25;;;9.10;99.90;;;;;;5039207;28;20090;-73
2022/03/02 11:07:39;;;;;;;33.58;19.17;;;9.20;99.90;;;;;;5050617;28;20036;-73
2022/03/02 11:10:07;;;;;;;34.58;19.58;;;9.30;99.90;;;;;;5069274;28;20115;-73
2022/03/02 11:12:33;;;;;;;32.42;18.92;;;9.40;99.90;;;;;;5053370;28;20053;-73
2022/03/02 11:15:04;;;;;;;31.85;19.45;;;9.50;99.90;;;;;;5045093;28;20048;-73
2022/03/02 11:17:29;;;;;;;33.80;19.70;;;9.60;99.90;;;;;;5049047;28;20040;-72
2022/03/02 11:19:57;;;;;;;32.95;18.63;;;9.70;99.90;;;;;;5056620;28;20048;-73
2022/03/02 11:22:25;;;;;;;31.20;19.15;;;9.80;99.90;;;;;;5056104;28;20037;-72
2022/03/02 11:24:59;;;;;;;30.05;19.20;;;9.90;99.90;;;;;;5057485;28;20044;-73
2022/03/02 11:27:36;;;;;;;30.88;19.50;;;9.90;99.90;;;;;;5058194;28;20041;-72
2022/03/02 11:30:19;;;;;;;33.10;19.48;;;10.00;99.90;;;;;;5057030;28;20040;-72
2022/03/02 11:32:47;;;;;;;31.27;18.98;;;10.10;99.90;;;;;;5058605;28;20055;-72
2022/03/02 11:35:17;;;;;;;32.60;18.73;;;10.20;99.90;;;;;;5042301;28;20489;-72
2022/03/02 11:37:43;;;;;;;30.40;18.67;;;10.20;99.90;;;;;;5038583;28;20044;-73
2022/03/02 11:40:12;;;;;;;32.00;19.10;;;10.20;99.90;;;;;;5043970;28;20135;-72
2022/03/02 11:42:40;;;;;;;30.17;18.30;;;10.30;99.90;;;;;;5043837;28;20165;-72
2022/03/02 11:45:08;;;;;;;29.73;18.67;;;10.30;99.90;;;;;;5045225;28;20072;-73
2022/03/02 11:47:39;;;;;;;32.60;19.45;;;10.50;99.90;;;;;;5041492;28;20060;-72
2022/03/02 11:50:08;;;;;;;25.85;18.08;;;10.50;99.90;;;;;;5037980;28;20122;-73
2022/03/02 11:52:37;;;;;;;27.38;18.50;;;10.60;99.90;;;;;;5042965;28;20048;-73
2022/03/02 11:55:12;;;;;;;33.00;18.67;;;10.70;99.90;;;;;;5037607;28;20046;-72
2022/03/02 11:57:43;;;;;;;29.60;18.85;;;10.80;99.90;;;;;;5038136;28;20077;-73
2022/03/02 12:00:22;;;;;;;28.60;18.33;;;10.80;99.90;;;;;;5072194;28;20175;-73
2022/03/02 12:02:52;;;;;;;29.38;17.80;;;10.90;99.90;;;;;;5073074;28;20400;-73
2022/03/02 12:05:24;;;;;;;30.10;18.42;;;10.90;99.90;;;;;;5046669;28;20117;-73
2022/03/02 12:07:52;;;;;;;28.83;18.55;;;10.90;99.90;;;;;;5048477;28;20606;-72
2022/03/02 12:10:35;;;;;;;28.38;18.00;;;10.90;99.90;;;;;;5050414;28;20080;-73
2022/03/02 12:13:01;;;;;;;29.08;19.02;;;11.00;99.90;;;;;;5042216;28;20049;-73
2022/03/02 12:15:43;;;;;;;28.10;18.08;;;11.00;99.90;;;;;;5041127;28;20400;-72
2022/03/02 12:18:11;;;;;;;29.65;18.70;;;11.00;99.90;;;;;;5038791;28;20090;-73
2022/03/02 12:20:50;;;;;;;29.98;18.35;;;11.10;99.90;;;;;;5035060;28;20560;-72
2022/03/02 12:23:27;;;;;;;31.38;18.25;;;11.20;99.90;;;;;;5039535;28;20053;-73
2022/03/02 12:25:54;;;;;;;27.63;17.50;;;11.30;99.90;;;;;;5062003;28;20040;-73
2022/03/02 12:28:21;;;;;;;28.38;18.23;;;11.30;99.90;;;;;;5043456;28;20057;-73
2022/03/02 12:30:47;;;;;;;27.48;16.40;;;11.40;99.90;;;;;;5036889;28;20036;-75
2022/03/02 12:33:12;;;;;;;27.13;16.17;;;11.40;99.90;;;;;;5060606;28;20079;-74
2022/03/02 12:35:39;;;;;;;27.48;17.40;;;11.50;99.90;;;;;;5059621;28;20569;-73
2022/03/02 12:38:09;;;;;;;27.20;17.30;;;11.50;99.90;;;;;;5041162;28;20048;-73
2022/03/02 12:40:42;;;;;;;25.95;17.08;;;11.60;99.90;;;;;;5033737;28;20048;-75